»·PEaware :: N1718G KSDM-KIZA

N1718G :: KSDM-KIZA

FLIGHT INFORMATION

Flight Status: Arrived
Operator: Privately registered:
United States
More flights under this callsign
Pilot: Spencer M. (27733)
Aircraft: BEECH AIRCRAFT BONANZA
(BE35)
More flights by this aircraft type
Origin: KSDM Brown Mun
United States
Destination: KIZA Santa Ynez
United States
More flights between these airports :: More routes between these airports
Route: +MZB V23 LAX V299 VTU KWANG
File this flight plan on PilotEdge
Remarks:
Altitude:
(Current/Filed)
8,000ft
Speed:
(Current/Filed)
170kts
Departed: 04-Aug-20 07:10 PM
Arrived: 04-Aug-20 08:33 PM
Distance/Time
Traveled:
197nm/1:23
Distance/Time
To Go:
Arrived

Flight Plot

Page will automatically refresh every two minutes.

Flight plan parsing failed; only flown route is shown


Map Options




Map Legend


Flown Route
Filed Route
Departure Airport
Arrival Airport
Navaid (VOR, NDB)
Fix

Horizontal Profiles

Position Reports

Time Latitude Longitude Heading Altitude Ground
Speed
04-Aug-20 18:30 32.570621 -116.984981 0 528ft 0kts
04-Aug-20 18:31 32.570621 -116.984981 282 528ft 0kts
04-Aug-20 18:32 32.570621 -116.984981 282 528ft 0kts
04-Aug-20 18:33 32.570621 -116.984981 282 528ft 0kts
04-Aug-20 18:34 32.570621 -116.984981 282 528ft 0kts
04-Aug-20 18:35 32.570621 -116.984981 282 528ft 0kts
04-Aug-20 18:36 32.570621 -116.984981 282 528ft 0kts
04-Aug-20 18:38 32.570621 -116.984981 282 528ft 0kts
04-Aug-20 18:39 32.570621 -116.984981 282 528ft 0kts
04-Aug-20 18:40 32.570621 -116.984981 282 528ft 0kts
04-Aug-20 18:41 32.570621 -116.984981 282 528ft 0kts
04-Aug-20 18:42 32.570621 -116.984981 282 528ft 0kts
04-Aug-20 18:43 32.570621 -116.984981 282 528ft 0kts
04-Aug-20 18:44 32.570621 -116.984981 282 528ft 0kts
04-Aug-20 18:45 32.570621 -116.984981 282 528ft 0kts
04-Aug-20 18:46 32.570621 -116.984981 282 528ft 0kts
04-Aug-20 18:47 32.570621 -116.984981 282 528ft 0kts
04-Aug-20 18:48 32.570621 -116.984981 282 528ft 0kts
04-Aug-20 18:49 32.570621 -116.984981 282 528ft 0kts
04-Aug-20 18:50 32.570621 -116.984981 282 528ft 0kts
04-Aug-20 18:51 32.570838 -116.984411 111 528ft 10kts
04-Aug-20 18:52 32.570216 -116.979097 96 528ft 25kts
04-Aug-20 18:53 32.569482 -116.970210 95 528ft 19kts
04-Aug-20 18:54 32.570800 -116.968058 6 528ft 0kts
04-Aug-20 18:55 32.570800 -116.968058 6 528ft 0kts
04-Aug-20 18:56 32.570800 -116.968058 6 528ft 0kts
04-Aug-20 18:57 32.570800 -116.968058 6 528ft 0kts
04-Aug-20 18:58 32.570800 -116.968058 6 528ft 0kts
04-Aug-20 18:59 32.570800 -116.968058 6 528ft 0kts
04-Aug-20 19:02 32.570621 -116.984982 282 529ft 0kts
04-Aug-20 19:03 32.570691 -116.984009 104 529ft 13kts
04-Aug-20 19:04 32.570083 -116.977311 94 529ft 21kts
04-Aug-20 19:05 32.569583 -116.971343 93 529ft 17kts
04-Aug-20 19:06 32.570865 -116.968216 14 529ft 0kts
04-Aug-20 19:07 32.570865 -116.968216 14 529ft 0kts
04-Aug-20 19:08 32.571117 -116.968129 12 529ft 7kts
04-Aug-20 19:09 32.572737 -116.983578 274 638ft 104kts
04-Aug-20 19:10 32.581586 -117.020469 291 1557ft 124kts
04-Aug-20 19:11 32.594818 -117.060244 290 2372ft 132kts
04-Aug-20 19:12 32.608006 -117.100866 290 3013ft 138kts
04-Aug-20 19:13 32.634729 -117.133653 327 3452ft 137kts
04-Aug-20 19:14 32.666729 -117.153418 328 4328ft 124kts
04-Aug-20 19:15 32.696017 -117.171603 327 5207ft 115kts
04-Aug-20 19:16 32.723295 -117.188656 326 5999ft 114kts
04-Aug-20 19:17 32.756169 -117.209206 327 6013ft 147kts
04-Aug-20 19:18 32.794400 -117.230148 335 6009ft 155kts
04-Aug-20 19:19 32.835202 -117.247445 335 6004ft 156kts
04-Aug-20 19:20 32.876344 -117.264676 335 5999ft 157kts
04-Aug-20 19:21 32.917744 -117.282002 335 5995ft 159kts
04-Aug-20 19:22 32.959580 -117.299525 335 5992ft 160kts
04-Aug-20 19:23 33.001843 -117.317285 335 5993ft 161kts
04-Aug-20 19:24 33.044345 -117.335132 336 5994ft 162kts
04-Aug-20 19:25 33.087010 -117.353055 336 5994ft 163kts
04-Aug-20 19:26 33.129927 -117.371093 337 5994ft 164kts
04-Aug-20 19:27 33.173022 -117.389186 337 5994ft 164kts
04-Aug-20 19:28 33.216279 -117.407407 337 5994ft 165kts
04-Aug-20 19:29 33.254712 -117.434969 314 5994ft 162kts
04-Aug-20 19:30 33.287387 -117.472212 312 5994ft 162kts
04-Aug-20 19:31 33.319763 -117.509844 312 6007ft 162kts
04-Aug-20 19:32 33.352159 -117.547630 312 6007ft 163kts
04-Aug-20 19:33 33.384524 -117.585435 312 6007ft 163kts
04-Aug-20 19:34 33.416964 -117.623374 312 6007ft 163kts
04-Aug-20 19:35 33.449361 -117.661309 312 6007ft 162kts
04-Aug-20 19:36 33.481690 -117.699200 312 6004ft 162kts
04-Aug-20 19:37 33.514015 -117.737125 312 6002ft 162kts
04-Aug-20 19:38 33.546280 -117.775021 312 6001ft 162kts
04-Aug-20 19:39 33.578462 -117.812861 312 6000ft 162kts
04-Aug-20 19:40 33.610657 -117.850756 312 6000ft 162kts
04-Aug-20 19:41 33.642784 -117.888614 312 5998ft 161kts
04-Aug-20 19:42 33.674797 -117.926382 312 5997ft 161kts
04-Aug-20 19:43 33.706861 -117.964260 312 5995ft 161kts
04-Aug-20 19:44 33.738722 -118.001938 312 5994ft 160kts
04-Aug-20 19:45 33.770502 -118.039549 312 5992ft 160kts
04-Aug-20 19:46 33.790559 -118.085395 286 5991ft 157kts
04-Aug-20 19:47 33.803784 -118.135367 285 6003ft 156kts
04-Aug-20 19:48 33.816670 -118.185737 285 6007ft 157kts
04-Aug-20 19:49 33.829434 -118.235996 285 6011ft 157kts
04-Aug-20 19:50 33.842144 -118.286185 285 6014ft 157kts
04-Aug-20 19:52 33.854862 -118.336498 285 6017ft 157kts
04-Aug-20 19:53 33.882637 -118.377117 314 5999ft 161kts
04-Aug-20 19:54 33.915738 -118.413238 315 5999ft 161kts
04-Aug-20 19:55 33.940311 -118.456429 290 5998ft 158kts
04-Aug-20 19:56 33.956643 -118.505772 289 5998ft 158kts
04-Aug-20 19:57 33.972526 -118.555299 289 5998ft 158kts
04-Aug-20 19:58 33.988360 -118.604973 289 5998ft 159kts
04-Aug-20 19:59 34.004210 -118.654820 288 5998ft 160kts
04-Aug-20 20:00 34.020193 -118.705156 288 5997ft 161kts
04-Aug-20 20:01 34.036154 -118.755523 288 5995ft 161kts
04-Aug-20 20:02 34.050297 -118.806731 285 5993ft 161kts
04-Aug-20 20:03 34.064059 -118.858095 285 5994ft 160kts
04-Aug-20 20:04 34.077756 -118.909353 286 5995ft 160kts
04-Aug-20 20:05 34.091412 -118.960544 286 5996ft 160kts
04-Aug-20 20:06 34.105059 -119.011787 286 5997ft 160kts
04-Aug-20 20:07 34.120709 -119.062009 294 5996ft 160kts
04-Aug-20 20:08 34.140694 -119.110295 295 5994ft 161kts
04-Aug-20 20:09 34.160952 -119.158699 295 5992ft 161kts
04-Aug-20 20:10 34.181208 -119.207085 295 5991ft 161kts
04-Aug-20 20:10 34.198127 -119.247539 295 5990ft 162kts
04-Aug-20 20:12 34.221760 -119.304115 295 5990ft 162kts
04-Aug-20 20:12 34.238704 -119.344723 295 5990ft 162kts
04-Aug-20 20:13 34.259195 -119.393722 295 5408ft 164kts
04-Aug-20 20:15 34.282996 -119.451090 295 4605ft 162kts
04-Aug-20 20:15 34.303914 -119.484642 310 4892ft 142kts
04-Aug-20 20:16 34.330327 -119.518056 310 5666ft 134kts
04-Aug-20 20:17 34.357575 -119.552441 310 5982ft 156kts
04-Aug-20 20:18 34.389082 -119.592170 310 5973ft 168kts
04-Aug-20 20:19 34.421730 -119.633396 311 5972ft 171kts
04-Aug-20 20:20 34.454661 -119.675032 310 5972ft 171kts
04-Aug-20 20:21 34.482211 -119.720446 299 5968ft 159kts
04-Aug-20 20:22 34.505733 -119.763945 299 5972ft 151kts
04-Aug-20 20:23 34.527772 -119.807324 297 5271ft 144kts
04-Aug-20 20:24 34.547443 -119.846829 297 4596ft 126kts
04-Aug-20 20:25 34.565393 -119.882833 298 4379ft 136kts
04-Aug-20 20:26 34.584967 -119.922572 298 3886ft 134kts
04-Aug-20 20:27 34.595000 -119.964471 277 3365ft 110kts
04-Aug-20 20:28 34.597721 -119.997258 276 2477ft 93kts
04-Aug-20 20:29 34.600920 -120.025235 276 1837ft 70kts
04-Aug-20 20:30 34.603892 -120.050183 277 1080ft 67kts
04-Aug-20 20:31 34.606313 -120.071502 278 674ft 59kts
04-Aug-20 20:32 34.607577 -120.076880 3 674ft 0kts

Navigation Log

Ident Type
Flight plan parsing failed, navigation log unavailable